createdAt,value
2023-04-21T00:05:23.698Z,8.00
2023-04-21T00:11:25.821Z,7.80
2023-04-21T00:17:28.168Z,7.60
2023-04-21T00:23:30.147Z,7.50
2023-04-21T00:29:31.962Z,7.50
2023-04-21T00:35:34.403Z,7.40
2023-04-21T00:41:36.977Z,7.30
2023-04-21T00:47:38.771Z,7.30
2023-04-21T00:53:41.080Z,7.40
2023-04-21T00:59:43.748Z,7.40
2023-04-21T01:05:46.698Z,7.60
2023-04-21T01:12:23.992Z,7.80
2023-04-21T01:18:25.819Z,7.90
2023-04-21T01:24:37.760Z,8.00
2023-04-21T01:30:39.744Z,7.90
2023-04-21T01:36:41.579Z,8.00
2023-04-21T01:42:45.793Z,8.10
2023-04-21T01:48:48.834Z,8.20
2023-04-21T01:54:50.743Z,8.20
2023-04-21T02:00:52.493Z,8.30
2023-04-21T02:06:54.342Z,8.30
2023-04-21T02:12:56.107Z,8.50
2023-04-21T02:18:58.125Z,8.50
2023-04-21T02:25:00.028Z,8.60
2023-04-21T02:31:01.883Z,8.60
2023-04-21T02:37:03.686Z,8.70
2023-04-21T02:43:05.459Z,8.90
2023-04-21T02:49:07.250Z,8.80
2023-04-21T02:55:09.195Z,8.90
2023-04-21T03:01:10.955Z,8.80
2023-04-21T03:07:13.806Z,8.90
2023-04-21T03:13:16.425Z,8.90
2023-04-21T03:19:18.300Z,8.90
2023-04-21T03:25:20.534Z,8.90
2023-04-21T03:31:22.278Z,8.80
2023-04-21T03:37:24.077Z,8.80
2023-04-21T03:43:25.876Z,8.80
2023-04-21T03:49:27.653Z,8.80
2023-04-21T03:55:29.570Z,8.80
2023-04-21T04:01:31.553Z,8.90
2023-04-21T04:07:33.878Z,8.80
2023-04-21T04:13:35.831Z,8.80
2023-04-21T04:19:37.695Z,8.80
2023-04-21T04:25:40.160Z,8.80
2023-04-21T04:31:42.087Z,8.80
2023-04-21T04:37:44.025Z,8.90
2023-04-21T04:43:46.609Z,8.90
2023-04-21T04:49:48.401Z,9.10
2023-04-21T04:55:50.313Z,9.60
2023-04-21T05:01:52.707Z,10.10
2023-04-21T05:07:54.568Z,10.00
2023-04-21T05:13:56.788Z,10.00
2023-04-21T05:19:58.561Z,9.90
2023-04-21T05:26:02.656Z,9.80
2023-04-21T05:32:06.074Z,10.40
2023-04-21T05:38:07.986Z,10.70
2023-04-21T05:44:09.868Z,11.00
2023-04-21T05:50:11.860Z,11.30
2023-04-21T05:56:14.214Z,11.20
2023-04-21T06:02:16.035Z,10.60
2023-04-21T06:08:17.836Z,10.30
2023-04-21T06:14:19.719Z,10.30
2023-04-21T06:20:21.671Z,10.50
2023-04-21T06:26:23.385Z,10.50
2023-04-21T06:32:25.225Z,10.50
2023-04-21T06:38:27.000Z,10.60
2023-04-21T06:44:29.422Z,10.80
2023-04-21T06:50:31.173Z,10.80
2023-04-21T06:56:33.400Z,10.80
2023-04-21T07:02:35.329Z,10.90
2023-04-21T07:08:37.399Z,11.10
2023-04-21T07:14:39.348Z,11.40
2023-04-21T07:20:41.386Z,11.60
2023-04-21T07:26:43.110Z,11.60
2023-04-21T07:32:45.133Z,11.70
2023-04-21T07:38:46.918Z,11.90
2023-04-21T07:44:49.035Z,12.20
2023-04-21T07:50:51.156Z,12.40
2023-04-21T07:56:52.832Z,12.40
2023-04-21T08:02:54.677Z,12.60
2023-04-21T08:08:56.566Z,12.80
2023-04-21T08:14:58.510Z,13.10
2023-04-21T08:21:00.596Z,13.10
2023-04-21T08:27:02.403Z,13.30
2023-04-21T08:33:04.260Z,13.30
2023-04-21T08:39:06.360Z,13.50
2023-04-21T08:45:08.892Z,13.70
2023-04-21T08:51:10.938Z,13.90
2023-04-21T08:57:15.890Z,14.40
2023-04-21T09:03:27.500Z,14.50
2023-04-21T09:09:29.345Z,14.70
2023-04-21T09:15:39.294Z,14.60
2023-04-21T09:21:44.357Z,15.20
2023-04-21T09:27:47.289Z,15.50
2023-04-21T09:34:00.454Z,15.70
2023-04-21T09:40:04.809Z,16.10
2023-04-21T09:46:07.501Z,16.40
2023-04-21T09:52:17.715Z,16.30
2023-04-21T09:58:24.585Z,16.50
2023-04-21T10:04:29.177Z,16.60
2023-04-21T10:10:32.016Z,16.70
2023-04-21T10:16:37.024Z,16.80
2023-04-21T10:22:39.772Z,17.10
2023-04-21T10:28:46.020Z,17.10
2023-04-21T10:34:49.151Z,17.50
2023-04-21T10:40:51.529Z,17.50
2023-04-21T10:46:53.992Z,17.50
2023-04-21T10:52:59.381Z,17.80
2023-04-21T10:59:01.422Z,17.70
2023-04-21T11:05:03.707Z,18.00
2023-04-21T11:11:05.705Z,18.20
2023-04-21T11:17:19.183Z,18.70
2023-04-21T11:23:20.923Z,18.40
2023-04-21T11:29:23.025Z,19.00
2023-04-21T11:35:24.841Z,18.70
2023-04-21T11:41:26.607Z,18.60
2023-04-21T11:47:28.966Z,18.90
2023-04-21T11:53:30.948Z,18.90
2023-04-21T11:59:32.780Z,19.00
2023-04-21T12:05:36.250Z,19.20
2023-04-21T12:11:38.053Z,19.70
2023-04-21T12:17:44.567Z,19.60
2023-04-21T12:23:46.411Z,18.70
2023-04-21T12:29:48.140Z,18.60
2023-04-21T12:35:49.925Z,18.80
2023-04-21T12:41:51.926Z,19.20
2023-04-21T12:47:55.060Z,19.20
2023-04-21T12:53:56.971Z,19.60
2023-04-21T12:59:58.755Z,20.10
2023-04-21T13:06:00.660Z,19.80
2023-04-21T13:12:02.784Z,19.70
2023-04-21T13:18:04.782Z,20.00
2023-04-21T13:24:06.744Z,20.00
2023-04-21T13:30:10.926Z,19.70
2023-04-21T13:36:13.272Z,20.00
2023-04-21T13:42:15.115Z,20.00
2023-04-21T13:48:16.995Z,20.10
2023-04-21T13:54:18.858Z,20.10
2023-04-21T14:00:21.006Z,20.20
2023-04-21T14:06:22.803Z,20.10
2023-04-21T14:12:26.406Z,19.90
2023-04-21T14:18:28.220Z,19.80
2023-04-21T14:24:32.302Z,19.80
2023-04-21T14:30:36.302Z,20.40
2023-04-21T14:36:38.059Z,20.40
2023-04-21T14:42:41.794Z,20.10
2023-04-21T14:48:44.686Z,20.20
2023-04-21T14:54:46.589Z,20.20
2023-04-21T15:00:48.514Z,19.80
2023-04-21T15:06:52.152Z,20.10
2023-04-21T15:12:54.393Z,20.10
2023-04-21T15:18:56.239Z,20.20
2023-04-21T15:24:58.626Z,20.10
2023-04-21T15:31:00.497Z,20.00
2023-04-21T15:37:02.546Z,19.60
2023-04-21T15:43:04.662Z,19.50
2023-04-21T15:49:06.419Z,19.60
2023-04-21T15:55:08.660Z,19.60
2023-04-21T16:01:10.913Z,19.60
2023-04-21T16:07:13.013Z,19.60
2023-04-21T16:13:15.034Z,19.60
2023-04-21T16:19:17.219Z,19.80
2023-04-21T16:25:20.042Z,19.60
2023-04-21T16:31:22.099Z,19.50
2023-04-21T16:37:23.973Z,19.60
2023-04-21T16:43:26.471Z,19.60
2023-04-21T16:49:30.198Z,19.40
2023-04-21T16:55:32.100Z,19.40
2023-04-21T17:01:33.959Z,19.20
2023-04-21T17:07:36.033Z,19.20
2023-04-21T17:13:39.302Z,19.00
2023-04-21T17:19:41.494Z,18.80
2023-04-21T17:25:43.184Z,18.60
2023-04-21T17:31:45.041Z,18.30
2023-04-21T17:37:47.141Z,18.30
2023-04-21T17:43:49.118Z,18.30
2023-04-21T17:49:50.959Z,18.10
2023-04-21T17:55:53.574Z,17.90
2023-04-21T18:01:57.773Z,17.80
2023-04-21T18:08:00.696Z,17.60
2023-04-21T18:14:02.480Z,17.30
2023-04-21T18:20:05.250Z,17.20
2023-04-21T18:26:08.512Z,17.00
2023-04-21T18:32:10.471Z,17.00
2023-04-21T18:38:13.486Z,16.80
2023-04-21T18:44:16.591Z,16.80
2023-04-21T18:50:19.063Z,16.70
2023-04-21T18:56:21.003Z,16.60
2023-04-21T19:02:22.983Z,16.40
2023-04-21T19:08:40.847Z,16.20
2023-04-21T19:14:47.642Z,16.30
2023-04-21T19:20:50.198Z,16.10
2023-04-21T19:26:52.016Z,16.10
2023-04-21T19:32:55.045Z,16.10
2023-04-21T19:38:56.959Z,16.20
2023-04-21T19:44:58.935Z,16.10
2023-04-21T19:51:01.021Z,16.20
2023-04-21T19:57:02.799Z,16.10
2023-04-21T20:03:06.595Z,16.00
2023-04-21T20:09:10.313Z,16.00
2023-04-21T20:15:12.916Z,16.00
2023-04-21T20:21:14.779Z,16.10
2023-04-21T20:27:16.587Z,15.90
2023-04-21T20:33:18.407Z,15.90
2023-04-21T20:39:21.507Z,15.60
2023-04-21T20:45:23.252Z,15.60
2023-04-21T20:51:26.714Z,15.50
2023-04-21T20:57:28.610Z,15.40
2023-04-21T21:03:30.827Z,15.40
2023-04-21T21:09:32.816Z,15.30
2023-04-21T21:15:35.267Z,15.10
2023-04-21T21:21:36.953Z,15.00
2023-04-21T21:27:38.777Z,15.00
2023-04-21T21:33:40.545Z,14.90
2023-04-21T21:39:42.253Z,14.90
2023-04-21T21:45:44.414Z,14.80
2023-04-21T21:51:46.336Z,14.80
2023-04-21T21:57:48.118Z,14.60
2023-04-21T22:03:50.176Z,14.60
2023-04-21T22:09:52.514Z,14.60
2023-04-21T22:15:54.496Z,14.60
2023-04-21T22:21:56.520Z,14.60
2023-04-21T22:27:58.440Z,14.40
2023-04-21T22:34:00.237Z,14.40
2023-04-21T22:40:02.036Z,14.20
2023-04-21T22:46:03.914Z,14.20
2023-04-21T22:52:05.951Z,14.20
2023-04-21T22:58:07.787Z,13.90
2023-04-21T23:04:09.776Z,13.50
2023-04-21T23:10:11.718Z,13.70
2023-04-21T23:16:13.525Z,13.70
2023-04-21T23:22:15.334Z,13.60
2023-04-21T23:28:17.188Z,13.40
2023-04-21T23:34:19.160Z,13.40
2023-04-21T23:40:21.009Z,13.50
2023-04-21T23:46:22.859Z,13.20
2023-04-21T23:52:25.006Z,13.00
2023-04-21T23:58:26.797Z,12.90
